createdAt,value
2023-02-26T00:01:43.932Z,2.01
2023-02-26T00:04:12.361Z,2.10
2023-02-26T00:06:53.110Z,1.98
2023-02-26T00:09:23.370Z,2.09
2023-02-26T00:11:53.423Z,2.12
2023-02-26T00:14:22.197Z,2.00
2023-02-26T00:16:59.349Z,2.07
2023-02-26T00:19:27.797Z,2.06
2023-02-26T00:21:56.525Z,1.95
2023-02-26T00:24:24.655Z,1.86
2023-02-26T00:26:55.448Z,1.93
2023-02-26T00:29:24.028Z,1.75
2023-02-26T00:31:52.865Z,1.66
2023-02-26T00:34:21.863Z,1.78
2023-02-26T00:36:59.454Z,1.62
2023-02-26T00:39:40.182Z,1.66
2023-02-26T00:42:10.682Z,1.82
2023-02-26T00:44:40.864Z,1.92
2023-02-26T00:47:15.267Z,1.92
2023-02-26T00:49:57.961Z,1.97
2023-02-26T00:52:32.571Z,2.11
2023-02-26T00:55:00.725Z,2.06
2023-02-26T00:57:30.192Z,1.98
2023-02-26T00:59:58.334Z,1.88
2023-02-26T01:02:27.100Z,1.82
2023-02-26T01:04:56.350Z,1.95
2023-02-26T01:07:26.105Z,1.93
2023-02-26T01:09:54.809Z,1.81
2023-02-26T01:12:23.423Z,1.85
2023-02-26T01:14:53.617Z,1.84
2023-02-26T01:17:26.526Z,1.84
2023-02-26T01:19:58.020Z,1.69
2023-02-26T01:22:32.804Z,1.59
2023-02-26T01:25:05.068Z,1.55
2023-02-26T01:27:33.799Z,1.62
2023-02-26T01:30:05.089Z,1.45
2023-02-26T01:32:43.875Z,1.46
2023-02-26T01:35:33.336Z,1.43
2023-02-26T01:38:05.700Z,1.37
2023-02-26T01:41:04.222Z,1.30
2023-02-26T01:43:40.762Z,1.48
2023-02-26T01:46:17.773Z,1.61
2023-02-26T01:48:52.403Z,1.77
2023-02-26T01:51:38.480Z,1.71
2023-02-26T01:54:07.049Z,1.61
2023-02-26T01:56:35.588Z,1.53
2023-02-26T01:59:06.060Z,1.48
2023-02-26T02:01:38.113Z,1.57
2023-02-26T02:04:09.776Z,1.65
2023-02-26T02:06:38.227Z,1.67
2023-02-26T02:09:07.676Z,1.62
2023-02-26T02:11:36.944Z,1.52
2023-02-26T02:14:13.851Z,1.42
2023-02-26T02:16:50.089Z,1.44
2023-02-26T02:19:56.098Z,1.37
2023-02-26T02:22:42.044Z,1.56
2023-02-26T02:25:33.072Z,1.70
2023-02-26T02:28:14.273Z,1.90
2023-02-26T02:30:58.086Z,1.93
2023-02-26T02:33:34.296Z,1.89
2023-02-26T02:36:06.454Z,1.89
2023-02-26T02:38:39.906Z,1.84
2023-02-26T02:41:12.384Z,1.92
2023-02-26T02:43:43.632Z,1.76
2023-02-26T02:46:17.263Z,1.83
2023-02-26T02:48:50.004Z,1.91
2023-02-26T02:51:24.414Z,2.01
2023-02-26T02:53:57.096Z,2.05
2023-02-26T02:56:29.388Z,2.04
2023-02-26T02:59:04.643Z,1.99
2023-02-26T03:01:37.292Z,1.88
2023-02-26T03:04:09.415Z,1.89
2023-02-26T03:06:38.373Z,1.73
2023-02-26T03:09:08.986Z,1.70
2023-02-26T03:11:38.247Z,1.73
2023-02-26T03:14:10.312Z,1.67
2023-02-26T03:16:55.879Z,1.59
2023-02-26T03:19:31.295Z,1.52
2023-02-26T03:22:06.135Z,1.50
2023-02-26T03:25:01.843Z,1.49
2023-02-26T03:27:35.567Z,1.45
2023-02-26T03:30:08.932Z,1.43
2023-02-26T03:32:53.641Z,1.34
2023-02-26T03:35:31.350Z,1.33
2023-02-26T03:38:04.464Z,1.25
2023-02-26T03:40:38.745Z,1.19
2023-02-26T03:43:13.771Z,1.13
2023-02-26T03:45:46.688Z,1.16
2023-02-26T03:48:22.174Z,1.20
2023-02-26T03:50:53.234Z,1.22
2023-02-26T03:53:47.180Z,1.24
2023-02-26T03:56:23.058Z,1.24
2023-02-26T03:59:10.223Z,1.20
2023-02-26T04:01:50.978Z,1.24
2023-02-26T04:04:26.516Z,1.37
2023-02-26T04:06:55.356Z,1.43
2023-02-26T04:09:24.163Z,1.30
2023-02-26T04:11:55.938Z,1.37
2023-02-26T04:14:24.655Z,1.40
2023-02-26T04:16:55.004Z,1.38
2023-02-26T04:19:25.128Z,1.31
2023-02-26T04:21:54.143Z,1.29
2023-02-26T04:24:22.615Z,1.30
2023-02-26T04:26:50.813Z,1.27
2023-02-26T04:29:19.260Z,1.29
2023-02-26T04:31:47.938Z,1.39
2023-02-26T04:34:16.198Z,1.46
2023-02-26T04:36:45.924Z,1.29
2023-02-26T04:39:14.929Z,1.20
2023-02-26T04:41:43.185Z,1.26
2023-02-26T04:44:11.330Z,1.21
2023-02-26T04:46:42.724Z,1.26
2023-02-26T04:49:11.482Z,1.32
2023-02-26T04:51:43.323Z,1.19
2023-02-26T04:54:15.140Z,1.16
2023-02-26T04:56:43.541Z,1.21
2023-02-26T04:59:11.744Z,1.25
2023-02-26T05:01:40.115Z,1.30
2023-02-26T05:04:09.754Z,1.33
2023-02-26T05:06:38.437Z,1.37
2023-02-26T05:09:07.262Z,1.44
2023-02-26T05:11:36.920Z,1.42
2023-02-26T05:14:08.192Z,1.34
2023-02-26T05:16:36.885Z,1.16
2023-02-26T05:19:05.019Z,1.32
2023-02-26T05:21:33.231Z,1.26
2023-02-26T05:24:01.422Z,1.04
2023-02-26T05:26:29.669Z,1.06
2023-02-26T05:28:59.437Z,1.05
2023-02-26T05:31:28.468Z,1.19
2023-02-26T05:33:56.646Z,1.08
2023-02-26T05:36:25.097Z,1.23
2023-02-26T05:38:54.170Z,1.19
2023-02-26T05:41:22.346Z,1.30
2023-02-26T05:43:50.519Z,1.30
2023-02-26T05:46:20.150Z,1.40
2023-02-26T05:48:48.380Z,1.50
2023-02-26T05:51:16.554Z,1.53
2023-02-26T05:53:44.661Z,1.56
2023-02-26T05:56:12.968Z,1.57
2023-02-26T05:58:41.107Z,1.65
2023-02-26T06:01:09.267Z,1.48
2023-02-26T06:03:40.353Z,1.40
2023-02-26T06:06:09.513Z,1.25
2023-02-26T06:08:38.498Z,1.15
2023-02-26T06:11:07.170Z,1.22
2023-02-26T06:13:35.280Z,1.37
2023-02-26T06:16:03.557Z,1.36
2023-02-26T06:18:33.797Z,1.31
2023-02-26T06:21:03.499Z,1.23
2023-02-26T06:23:31.611Z,1.26
2023-02-26T06:26:00.151Z,1.29
2023-02-26T06:28:28.346Z,1.35
2023-02-26T06:30:56.705Z,1.29
2023-02-26T06:33:24.823Z,1.23
2023-02-26T06:35:53.503Z,1.25
2023-02-26T06:38:23.117Z,1.34
2023-02-26T06:40:51.283Z,1.51
2023-02-26T06:43:19.390Z,1.42
2023-02-26T06:45:47.643Z,1.56
2023-02-26T06:48:15.811Z,1.75
2023-02-26T06:50:43.992Z,1.69
2023-02-26T06:53:12.087Z,1.60
2023-02-26T06:55:46.012Z,1.81
2023-02-26T06:58:14.683Z,2.06
2023-02-26T07:00:43.063Z,1.96
2023-02-26T07:03:14.605Z,2.05
2023-02-26T07:05:43.192Z,2.06
2023-02-26T07:08:11.361Z,2.20
2023-02-26T07:10:39.863Z,2.04
2023-02-26T07:13:09.558Z,2.23
2023-02-26T07:15:37.729Z,2.29
2023-02-26T07:18:06.072Z,3.30
2023-02-26T07:20:34.313Z,4.07
2023-02-26T07:23:02.991Z,4.38
2023-02-26T07:25:31.198Z,3.91
2023-02-26T07:28:00.074Z,3.91
2023-02-26T07:30:30.026Z,3.49
2023-02-26T07:32:58.871Z,3.49
2023-02-26T07:35:27.406Z,3.34
2023-02-26T07:37:55.594Z,3.23
2023-02-26T07:40:23.732Z,3.46
2023-02-26T07:42:51.927Z,3.56
2023-02-26T07:45:22.567Z,3.53
2023-02-26T07:47:54.118Z,4.06
2023-02-26T07:50:24.976Z,4.11
2023-02-26T07:52:54.098Z,4.27
2023-02-26T07:55:22.751Z,4.06
2023-02-26T07:57:51.348Z,4.47
2023-02-26T08:00:20.353Z,4.45
2023-02-26T08:02:48.856Z,4.57
2023-02-26T08:05:18.694Z,4.77
2023-02-26T08:07:46.966Z,5.49
2023-02-26T08:10:15.072Z,5.43
2023-02-26T08:12:43.324Z,5.80
2023-02-26T08:15:14.441Z,5.65
2023-02-26T08:17:42.809Z,5.43
2023-02-26T08:20:14.948Z,5.63
2023-02-26T08:22:44.565Z,4.76
2023-02-26T08:25:13.483Z,4.10
2023-02-26T08:27:41.703Z,4.69
2023-02-26T08:30:11.250Z,4.59
2023-02-26T08:32:42.393Z,4.73
2023-02-26T08:35:11.120Z,4.18
2023-02-26T08:37:39.613Z,4.77
2023-02-26T08:40:12.491Z,5.11
2023-02-26T08:42:42.363Z,5.69
2023-02-26T08:45:11.549Z,5.07
2023-02-26T08:47:53.958Z,5.04
2023-02-26T08:50:23.731Z,5.42
2023-02-26T08:52:51.889Z,5.75
2023-02-26T08:55:21.587Z,5.35
2023-02-26T08:57:49.802Z,5.43
2023-02-26T09:00:19.426Z,5.17
2023-02-26T09:02:47.849Z,5.64
2023-02-26T09:05:16.491Z,5.14
2023-02-26T09:07:45.743Z,6.22
2023-02-26T09:10:15.399Z,6.41
2023-02-26T09:12:45.401Z,7.05
2023-02-26T09:15:15.264Z,7.03
2023-02-26T09:17:43.844Z,5.71
2023-02-26T09:20:13.792Z,4.98
2023-02-26T09:22:42.447Z,5.07
2023-02-26T09:25:11.830Z,4.78
2023-02-26T09:27:40.092Z,5.33
2023-02-26T09:30:12.251Z,6.23
2023-02-26T09:32:40.475Z,5.32
2023-02-26T09:35:09.986Z,5.20
2023-02-26T09:37:38.318Z,5.53
2023-02-26T09:40:07.901Z,6.05
2023-02-26T09:42:55.825Z,5.48
2023-02-26T09:45:30.333Z,6.19
2023-02-26T09:47:59.732Z,7.43
2023-02-26T09:50:36.241Z,7.13
2023-02-26T09:53:13.814Z,6.56
2023-02-26T09:55:45.149Z,6.70
2023-02-26T09:58:19.871Z,6.62
2023-02-26T10:00:59.663Z,6.88
2023-02-26T10:03:34.427Z,7.32
2023-02-26T10:06:19.488Z,6.44
2023-02-26T10:09:00.167Z,6.61
2023-02-26T10:11:35.521Z,6.34
2023-02-26T10:14:08.441Z,6.33
2023-02-26T10:16:42.472Z,6.55
2023-02-26T10:19:17.208Z,6.73
2023-02-26T10:21:50.670Z,7.09
2023-02-26T10:24:24.209Z,6.97
2023-02-26T10:26:56.724Z,7.13
2023-02-26T10:29:35.518Z,7.18
2023-02-26T10:32:20.594Z,7.08
2023-02-26T10:34:54.033Z,7.22
2023-02-26T10:37:30.454Z,7.59
2023-02-26T10:40:09.585Z,6.74
2023-02-26T10:42:42.475Z,6.87
2023-02-26T10:45:26.017Z,7.22
2023-02-26T10:48:06.499Z,7.65
2023-02-26T10:50:35.018Z,8.01
2023-02-26T10:53:03.955Z,8.00
2023-02-26T10:55:42.021Z,8.15
2023-02-26T10:58:14.657Z,8.14
2023-02-26T11:00:46.803Z,8.66
2023-02-26T11:03:19.986Z,8.62
2023-02-26T11:05:50.311Z,8.69
2023-02-26T11:08:24.655Z,9.05
2023-02-26T11:10:55.536Z,8.96
2023-02-26T11:13:25.261Z,9.04
2023-02-26T11:15:55.885Z,7.89
2023-02-26T11:18:31.228Z,8.34
2023-02-26T11:21:03.037Z,8.61
2023-02-26T11:23:33.879Z,8.10
2023-02-26T11:26:07.114Z,8.52
2023-02-26T11:28:38.996Z,8.53
2023-02-26T11:31:11.352Z,8.80
2023-02-26T11:33:45.202Z,7.95
2023-02-26T11:36:17.305Z,8.31
2023-02-26T11:38:48.362Z,8.32
2023-02-26T11:41:19.011Z,8.01
2023-02-26T11:43:52.867Z,8.48
2023-02-26T11:46:26.167Z,8.57
2023-02-26T11:48:59.976Z,8.32
2023-02-26T11:51:30.978Z,8.05
2023-02-26T11:54:01.666Z,7.93
2023-02-26T11:56:34.417Z,7.55
2023-02-26T11:59:09.711Z,7.23
2023-02-26T12:01:40.024Z,7.12
2023-02-26T12:04:12.599Z,6.49
2023-02-26T12:06:42.410Z,6.34
2023-02-26T12:09:14.145Z,6.38
2023-02-26T12:12:18.170Z,6.10
2023-02-26T12:14:58.756Z,5.91
2023-02-26T12:17:59.459Z,5.52
2023-02-26T12:20:36.943Z,5.29
2023-02-26T12:23:27.387Z,5.24
2023-02-26T12:26:25.982Z,5.38
2023-02-26T12:29:15.706Z,5.10
2023-02-26T12:32:11.161Z,5.19
2023-02-26T12:34:59.645Z,5.15
2023-02-26T12:37:45.392Z,5.10
2023-02-26T12:40:34.297Z,5.04
2023-02-26T12:43:09.499Z,4.93
2023-02-26T12:45:49.093Z,5.01
2023-02-26T12:48:45.882Z,5.04
2023-02-26T12:51:26.591Z,5.06
2023-02-26T12:54:33.043Z,4.91
2023-02-26T12:57:44.930Z,4.81
2023-02-26T13:00:29.273Z,4.67
2023-02-26T13:03:30.953Z,4.54
2023-02-26T13:06:21.838Z,4.50
2023-02-26T13:09:03.898Z,4.68
2023-02-26T13:11:47.781Z,4.80
2023-02-26T13:14:31.592Z,4.89
2023-02-26T13:17:11.511Z,4.80
2023-02-26T13:19:50.335Z,4.73
2023-02-26T13:22:25.125Z,4.74
2023-02-26T13:24:59.243Z,4.82
2023-02-26T13:27:33.555Z,4.62
2023-02-26T13:30:19.239Z,4.80
2023-02-26T13:32:50.940Z,4.80
2023-02-26T13:35:24.152Z,4.80
2023-02-26T13:37:56.369Z,4.77
2023-02-26T13:40:45.528Z,4.46
2023-02-26T13:43:33.759Z,4.47
2023-02-26T13:46:21.721Z,4.50
2023-02-26T13:49:00.763Z,4.55
2023-02-26T13:51:37.786Z,4.48
2023-02-26T13:54:20.469Z,4.63
2023-02-26T13:56:55.612Z,4.71
2023-02-26T13:59:47.723Z,4.67
2023-02-26T14:02:48.609Z,4.58
2023-02-26T14:05:53.851Z,5.60
2023-02-26T14:08:57.382Z,6.66
2023-02-26T14:11:47.724Z,5.48
2023-02-26T14:14:26.123Z,4.96
2023-02-26T14:17:44.091Z,4.71
2023-02-26T14:20:24.410Z,4.70
2023-02-26T14:23:14.455Z,4.48
2023-02-26T14:25:49.254Z,4.47
2023-02-26T14:28:43.008Z,4.45
2023-02-26T14:31:22.629Z,4.30
2023-02-26T14:34:11.648Z,4.23
2023-02-26T14:36:47.016Z,4.24
2023-02-26T14:39:26.981Z,4.23
2023-02-26T14:42:00.713Z,4.05
2023-02-26T14:44:33.468Z,4.00
2023-02-26T14:47:04.283Z,4.03
2023-02-26T14:49:36.849Z,4.08
2023-02-26T14:52:41.390Z,3.94
2023-02-26T14:55:47.772Z,4.02
2023-02-26T14:59:06.672Z,3.99
2023-02-26T15:01:53.673Z,3.86
2023-02-26T15:04:49.727Z,3.78
2023-02-26T15:07:42.746Z,3.86
2023-02-26T15:10:31.518Z,3.96
2023-02-26T15:13:23.399Z,3.83
2023-02-26T15:15:58.629Z,3.89
2023-02-26T15:19:11.090Z,3.86
2023-02-26T15:21:53.669Z,3.80
2023-02-26T15:24:25.232Z,3.74
2023-02-26T15:26:58.513Z,3.73
2023-02-26T15:29:32.939Z,3.55
2023-02-26T15:32:18.296Z,3.59
2023-02-26T15:34:49.515Z,3.51
2023-02-26T15:37:24.443Z,3.49
2023-02-26T15:39:56.587Z,3.50
2023-02-26T15:42:34.205Z,3.45
2023-02-26T15:45:07.590Z,3.44
2023-02-26T15:47:41.128Z,3.41
2023-02-26T15:50:16.219Z,3.34
2023-02-26T15:52:46.283Z,3.38
2023-02-26T15:55:19.626Z,3.31
2023-02-26T15:57:50.429Z,3.31
2023-02-26T16:00:25.384Z,3.34
2023-02-26T16:02:57.588Z,3.18
2023-02-26T16:05:30.216Z,3.22
2023-02-26T16:07:59.949Z,3.10
2023-02-26T16:10:38.214Z,3.12
2023-02-26T16:13:12.250Z,3.14
2023-02-26T16:15:42.962Z,3.12
2023-02-26T16:18:18.768Z,3.10
2023-02-26T16:20:49.923Z,3.00
2023-02-26T16:23:22.707Z,2.98
2023-02-26T16:25:56.706Z,3.03
2023-02-26T16:28:31.200Z,2.98
2023-02-26T16:31:05.801Z,3.02
2023-02-26T16:33:39.713Z,2.96
2023-02-26T16:36:16.211Z,2.94
2023-02-26T16:38:48.334Z,2.94
2023-02-26T16:41:26.432Z,2.90
2023-02-26T16:43:58.511Z,2.90
2023-02-26T16:46:36.719Z,2.86
2023-02-26T16:49:11.811Z,2.84
2023-02-26T16:51:44.003Z,2.83
2023-02-26T16:54:24.947Z,2.81
2023-02-26T16:57:00.850Z,2.81
2023-02-26T16:59:33.666Z,2.71
2023-02-26T17:02:14.937Z,2.57
2023-02-26T17:04:45.114Z,2.59
2023-02-26T17:07:23.091Z,2.57
2023-02-26T17:09:54.840Z,2.56
2023-02-26T17:12:32.643Z,2.56
2023-02-26T17:15:13.862Z,2.62
2023-02-26T17:17:44.153Z,4.14
2023-02-26T17:20:15.407Z,4.20
2023-02-26T17:22:47.164Z,4.43
2023-02-26T17:25:19.298Z,4.48
2023-02-26T17:27:54.834Z,5.26
2023-02-26T17:30:30.312Z,5.02
2023-02-26T17:33:01.000Z,5.64
2023-02-26T17:35:31.974Z,4.68
2023-02-26T17:38:02.990Z,4.10
2023-02-26T17:40:38.650Z,3.73
2023-02-26T17:43:10.679Z,3.46
2023-02-26T17:45:43.067Z,3.23
2023-02-26T17:48:17.360Z,3.06
2023-02-26T17:50:49.791Z,2.96
2023-02-26T17:53:20.977Z,2.91
2023-02-26T17:55:52.546Z,2.85
2023-02-26T17:58:29.626Z,2.72
2023-02-26T18:01:04.686Z,2.69
2023-02-26T18:03:35.204Z,2.68
2023-02-26T18:06:06.278Z,2.64
2023-02-26T18:08:36.197Z,2.55
2023-02-26T18:11:06.956Z,2.51
2023-02-26T18:13:38.558Z,2.43
2023-02-26T18:16:09.591Z,2.28
2023-02-26T18:18:39.994Z,2.29
2023-02-26T18:21:10.621Z,2.29
2023-02-26T18:23:41.874Z,2.23
2023-02-26T18:26:13.440Z,2.15
2023-02-26T18:28:45.883Z,2.20
2023-02-26T18:31:17.800Z,2.16
2023-02-26T18:33:49.806Z,2.13
2023-02-26T18:36:30.349Z,2.11
2023-02-26T18:39:01.629Z,2.04
2023-02-26T18:41:33.197Z,2.03
2023-02-26T18:44:06.603Z,2.00
2023-02-26T18:46:40.276Z,1.99
2023-02-26T18:49:17.616Z,1.98
2023-02-26T18:51:46.588Z,2.10
2023-02-26T18:54:26.011Z,2.12
2023-02-26T18:56:57.508Z,2.09
2023-02-26T18:59:29.001Z,2.10
2023-02-26T19:02:00.646Z,2.00
2023-02-26T19:04:31.744Z,2.04
2023-02-26T19:07:04.435Z,1.97
2023-02-26T19:09:35.783Z,1.89
2023-02-26T19:12:05.817Z,1.90
2023-02-26T19:14:37.699Z,1.85
2023-02-26T19:17:10.658Z,1.94
2023-02-26T19:19:41.588Z,1.91
2023-02-26T19:22:12.115Z,1.84
2023-02-26T19:24:44.842Z,1.82
2023-02-26T19:27:17.356Z,1.84
2023-02-26T19:29:48.880Z,1.89
2023-02-26T19:32:23.671Z,1.79
2023-02-26T19:34:54.296Z,1.79
2023-02-26T19:37:24.598Z,1.83
2023-02-26T19:39:54.842Z,1.79
2023-02-26T19:42:29.020Z,1.81
2023-02-26T19:45:02.422Z,1.83
2023-02-26T19:47:32.201Z,1.85
2023-02-26T19:50:04.492Z,1.82
2023-02-26T19:52:34.520Z,1.72
2023-02-26T19:55:05.652Z,1.60
2023-02-26T19:57:36.457Z,1.57
2023-02-26T20:00:12.732Z,1.50
2023-02-26T20:02:43.507Z,1.52
2023-02-26T20:05:18.528Z,1.55
2023-02-26T20:07:51.131Z,1.53
2023-02-26T20:10:24.228Z,1.51
2023-02-26T20:15:39.034Z,1.51
2023-02-26T20:18:11.894Z,1.47
2023-02-26T20:20:42.049Z,1.46
2023-02-26T20:23:15.174Z,1.40
2023-02-26T20:25:49.224Z,1.33
2023-02-26T20:28:19.879Z,1.32
2023-02-26T20:30:50.527Z,1.32
2023-02-26T20:33:21.681Z,1.26
2023-02-26T20:35:53.125Z,1.25
2023-02-26T20:38:24.283Z,1.27
2023-02-26T20:40:54.582Z,1.26
2023-02-26T20:43:25.507Z,1.28
2023-02-26T20:45:57.184Z,1.26
2023-02-26T20:48:27.692Z,1.37
2023-02-26T20:51:01.905Z,1.40
2023-02-26T20:53:31.987Z,1.36
2023-02-26T20:56:02.725Z,1.27
2023-02-26T20:58:31.976Z,1.20
2023-02-26T21:01:02.865Z,1.20
2023-02-26T21:03:32.416Z,1.25
2023-02-26T21:06:01.803Z,1.16
2023-02-26T21:08:31.747Z,1.16
2023-02-26T21:11:01.864Z,1.18
2023-02-26T21:13:31.360Z,1.25
2023-02-26T21:16:03.820Z,1.31
2023-02-26T21:18:33.958Z,1.15
2023-02-26T21:21:05.930Z,1.16
2023-02-26T21:23:38.171Z,1.23
2023-02-26T21:26:08.474Z,1.34
2023-02-26T21:28:37.135Z,1.42
2023-02-26T21:31:08.017Z,1.42
2023-02-26T21:33:36.508Z,1.33
2023-02-26T21:36:06.473Z,1.24
2023-02-26T21:38:35.555Z,1.24
2023-02-26T21:41:03.967Z,1.20
2023-02-26T21:43:32.831Z,1.26
2023-02-26T21:46:01.438Z,1.30
2023-02-26T21:48:31.666Z,1.16
2023-02-26T21:51:00.626Z,0.99
2023-02-26T21:53:29.313Z,0.96
2023-02-26T21:55:58.234Z,1.04
2023-02-26T21:58:26.645Z,0.94
2023-02-26T22:00:54.973Z,1.00
2023-02-26T22:03:23.075Z,1.03
2023-02-26T22:05:53.583Z,1.06
2023-02-26T22:08:21.699Z,1.08
2023-02-26T22:10:49.868Z,1.13
2023-02-26T22:13:17.958Z,1.10
2023-02-26T22:15:46.535Z,1.12
2023-02-26T22:18:14.634Z,1.05
2023-02-26T22:20:43.109Z,1.05
2023-02-26T22:23:12.673Z,1.06
2023-02-26T22:25:41.069Z,1.12
2023-02-26T22:28:09.271Z,1.15
2023-02-26T22:30:37.584Z,1.12
2023-02-26T22:33:05.810Z,1.01
2023-02-26T22:35:34.027Z,1.05
2023-02-26T22:38:02.135Z,1.07
2023-02-26T22:40:31.688Z,1.07
2023-02-26T22:43:00.096Z,1.06
2023-02-26T22:45:28.364Z,1.01
2023-02-26T22:47:56.583Z,1.01
2023-02-26T22:50:25.171Z,1.01
2023-02-26T22:52:53.300Z,0.81
2023-02-26T22:55:21.457Z,0.81
2023-02-26T22:57:51.072Z,0.75
2023-02-26T23:00:20.894Z,0.63
2023-02-26T23:02:50.379Z,0.64
2023-02-26T23:05:20.440Z,0.61
2023-02-26T23:07:49.321Z,0.53
2023-02-26T23:10:21.502Z,0.46
2023-02-26T23:12:51.112Z,0.38
2023-02-26T23:15:19.417Z,0.27
2023-02-26T23:17:47.520Z,0.30
2023-02-26T23:20:16.984Z,0.14
2023-02-26T23:22:45.284Z,0.05
2023-02-26T23:25:13.436Z,0.13
2023-02-26T23:27:41.506Z,-0.03
2023-02-26T23:30:12.853Z,-0.13
2023-02-26T23:32:41.056Z,-0.12
2023-02-26T23:35:09.907Z,-0.05
2023-02-26T23:37:38.073Z,0.02
2023-02-26T23:40:07.743Z,0.03
2023-02-26T23:42:35.834Z,-0.11
2023-02-26T23:45:04.116Z,0.03
2023-02-26T23:47:33.957Z,0.09
2023-02-26T23:50:02.038Z,0.22
2023-02-26T23:52:30.142Z,-0.01
2023-02-26T23:54:58.280Z,-0.02
2023-02-26T23:57:26.621Z,-0.05
2023-02-26T23:59:54.725Z,0.09
